sensor_id;sensor_type;location;lat;lon;timestamp;P1;durP1;ratioP1;P2;durP2;ratioP2
22005;SDS011;11167;46.988;15.470;2022-08-11T00:01:14;2.22;;;1.77;;
22005;SDS011;11167;46.988;15.470;2022-08-11T00:03:18;2.10;;;1.70;;
22005;SDS011;11167;46.988;15.470;2022-08-11T00:05:20;2.92;;;1.90;;
22005;SDS011;11167;46.988;15.470;2022-08-11T00:07:22;2.20;;;1.90;;
22005;SDS011;11167;46.988;15.470;2022-08-11T00:09:31;2.10;;;1.80;;
22005;SDS011;11167;46.988;15.470;2022-08-11T00:13:38;3.08;;;1.87;;
22005;SDS011;11167;46.988;15.470;2022-08-11T00:15:42;2.55;;;1.90;;
22005;SDS011;11167;46.988;15.470;2022-08-11T00:17:45;2.92;;;1.90;;
22005;SDS011;11167;46.988;15.470;2022-08-11T00:19:47;3.35;;;1.80;;
22005;SDS011;11167;46.988;15.470;2022-08-11T00:21:49;2.45;;;2.00;;
22005;SDS011;11167;46.988;15.470;2022-08-11T00:23:53;2.27;;;1.82;;
22005;SDS011;11167;46.988;15.470;2022-08-11T00:25:57;1.82;;;1.67;;
22005;SDS011;11167;46.988;15.470;2022-08-11T00:28:00;2.47;;;2.10;;
22005;SDS011;11167;46.988;15.470;2022-08-11T00:30:01;2.62;;;1.95;;
22005;SDS011;11167;46.988;15.470;2022-08-11T00:34:09;2.67;;;1.90;;
22005;SDS011;11167;46.988;15.470;2022-08-11T00:38:13;3.02;;;2.00;;
22005;SDS011;11167;46.988;15.470;2022-08-11T00:40:17;2.20;;;1.82;;
22005;SDS011;11167;46.988;15.470;2022-08-11T00:44:52;2.60;;;1.92;;
22005;SDS011;11167;46.988;15.470;2022-08-11T00:49:15;2.67;;;1.95;;
22005;SDS011;11167;46.988;15.470;2022-08-11T00:56:33;3.12;;;1.95;;
22005;SDS011;11167;46.988;15.470;2022-08-11T01:19:45;2.05;;;1.85;;
22005;SDS011;11167;46.988;15.470;2022-08-11T01:29:37;2.35;;;1.92;;
22005;SDS011;11167;46.988;15.470;2022-08-11T01:31:45;2.62;;;2.02;;
22005;SDS011;11167;46.988;15.470;2022-08-11T01:44:20;2.37;;;1.80;;
22005;SDS011;11167;46.988;15.470;2022-08-11T01:52:10;3.12;;;1.92;;
22005;SDS011;11167;46.988;15.470;2022-08-11T01:53:50;1.82;;;1.70;;
22005;SDS011;11167;46.988;15.470;2022-08-11T01:58:30;2.65;;;2.10;;
22005;SDS011;11167;46.988;15.470;2022-08-11T02:00:35;2.35;;;1.90;;
22005;SDS011;11167;46.988;15.470;2022-08-11T02:02:53;3.17;;;2.22;;
22005;SDS011;11167;46.988;15.470;2022-08-11T02:05:02;2.22;;;1.98;;
22005;SDS011;11167;46.988;15.470;2022-08-11T02:12:24;1.80;;;1.70;;
22005;SDS011;11167;46.988;15.470;2022-08-11T02:16:47;2.37;;;2.00;;
22005;SDS011;11167;46.988;15.470;2022-08-11T02:24:22;2.10;;;1.55;;
22005;SDS011;11167;46.988;15.470;2022-08-11T02:26:27;2.22;;;2.00;;
22005;SDS011;11167;46.988;15.470;2022-08-11T02:33:27;2.08;;;1.72;;
22005;SDS011;11167;46.988;15.470;2022-08-11T02:35:45;1.87;;;1.60;;
22005;SDS011;11167;46.988;15.470;2022-08-11T02:42:55;2.00;;;1.57;;
22005;SDS011;11167;46.988;15.470;2022-08-11T02:44:35;2.52;;;1.90;;
22005;SDS011;11167;46.988;15.470;2022-08-11T02:47:02;3.75;;;2.10;;
22005;SDS011;11167;46.988;15.470;2022-08-11T02:49:11;1.85;;;1.70;;
22005;SDS011;11167;46.988;15.470;2022-08-11T02:56:15;2.75;;;1.95;;
22005;SDS011;11167;46.988;15.470;2022-08-11T02:58:32;3.02;;;1.60;;
22005;SDS011;11167;46.988;15.470;2022-08-11T03:00:41;2.37;;;1.90;;
22005;SDS011;11167;46.988;15.470;2022-08-11T03:05:20;2.67;;;1.95;;
22005;SDS011;11167;46.988;15.470;2022-08-11T03:07:39;1.77;;;1.62;;
22005;SDS011;11167;46.988;15.470;2022-08-11T03:09:48;2.27;;;1.95;;
22005;SDS011;11167;46.988;15.470;2022-08-11T03:14:19;2.58;;;1.90;;
22005;SDS011;11167;46.988;15.470;2022-08-11T03:21:31;1.90;;;1.70;;
22005;SDS011;11167;46.988;15.470;2022-08-11T03:23:34;2.67;;;1.85;;
22005;SDS011;11167;46.988;15.470;2022-08-11T03:25:45;2.33;;;1.70;;
22005;SDS011;11167;46.988;15.470;2022-08-11T03:28:25;2.58;;;1.70;;
22005;SDS011;11167;46.988;15.470;2022-08-11T03:35:31;1.90;;;1.57;;
22005;SDS011;11167;46.988;15.470;2022-08-11T03:37:54;1.90;;;1.65;;
22005;SDS011;11167;46.988;15.470;2022-08-11T03:40:05;2.77;;;1.90;;
22005;SDS011;11167;46.988;15.470;2022-08-11T03:51:38;2.35;;;1.80;;
22005;SDS011;11167;46.988;15.470;2022-08-11T03:53:48;1.65;;;1.52;;
22005;SDS011;11167;46.988;15.470;2022-08-11T04:00:44;1.70;;;1.60;;
22005;SDS011;11167;46.988;15.470;2022-08-11T04:05:31;2.47;;;1.70;;
22005;SDS011;11167;46.988;15.470;2022-08-11T04:10:27;3.60;;;1.60;;
22005;SDS011;11167;46.988;15.470;2022-08-11T04:27:05;2.05;;;1.77;;
22005;SDS011;11167;46.988;15.470;2022-08-11T04:29:34;3.35;;;1.77;;
22005;SDS011;11167;46.988;15.470;2022-08-11T04:31:37;1.62;;;1.52;;
22005;SDS011;11167;46.988;15.470;2022-08-11T04:33:57;2.15;;;1.65;;
22005;SDS011;11167;46.988;15.470;2022-08-11T04:36:01;2.10;;;1.90;;
22005;SDS011;11167;46.988;15.470;2022-08-11T04:43:02;2.00;;;1.77;;
22005;SDS011;11167;46.988;15.470;2022-08-11T04:45:24;2.05;;;1.70;;
22005;SDS011;11167;46.988;15.470;2022-08-11T04:51:00;2.05;;;1.57;;
22005;SDS011;11167;46.988;15.470;2022-08-11T05:00:51;1.92;;;1.62;;
22005;SDS011;11167;46.988;15.470;2022-08-11T05:11:06;2.02;;;1.75;;
22005;SDS011;11167;46.988;15.470;2022-08-11T05:13:01;2.25;;;1.60;;
22005;SDS011;11167;46.988;15.470;2022-08-11T05:15:26;2.15;;;1.67;;
22005;SDS011;11167;46.988;15.470;2022-08-11T05:18:05;3.08;;;1.50;;
22005;SDS011;11167;46.988;15.470;2022-08-11T05:20:22;2.33;;;1.60;;
22005;SDS011;11167;46.988;15.470;2022-08-11T05:22:47;2.35;;;1.75;;
22005;SDS011;11167;46.988;15.470;2022-08-11T05:25:10;1.52;;;1.40;;
22005;SDS011;11167;46.988;15.470;2022-08-11T05:27:35;2.42;;;1.90;;
22005;SDS011;11167;46.988;15.470;2022-08-11T05:30:05;2.17;;;1.60;;
22005;SDS011;11167;46.988;15.470;2022-08-11T05:32:29;2.52;;;1.90;;
22005;SDS011;11167;46.988;15.470;2022-08-11T05:34:56;1.57;;;1.47;;
22005;SDS011;11167;46.988;15.470;2022-08-11T05:37:09;3.05;;;1.62;;
22005;SDS011;11167;46.988;15.470;2022-08-11T05:39:22;2.80;;;2.10;;
22005;SDS011;11167;46.988;15.470;2022-08-11T05:41:43;2.25;;;1.90;;
22005;SDS011;11167;46.988;15.470;2022-08-11T05:44:03;2.42;;;1.70;;
22005;SDS011;11167;46.988;15.470;2022-08-11T05:46:25;2.22;;;1.67;;
22005;SDS011;11167;46.988;15.470;2022-08-11T05:48:46;2.15;;;1.95;;
22005;SDS011;11167;46.988;15.470;2022-08-11T05:51:07;1.70;;;1.60;;
22005;SDS011;11167;46.988;15.470;2022-08-11T05:53:27;2.85;;;1.80;;
22005;SDS011;11167;46.988;15.470;2022-08-11T05:55:48;2.42;;;1.90;;
22005;SDS011;11167;46.988;15.470;2022-08-11T05:58:09;3.15;;;1.92;;
22005;SDS011;11167;46.988;15.470;2022-08-11T06:00:13;2.47;;;1.97;;
22005;SDS011;11167;46.988;15.470;2022-08-11T06:02:14;2.77;;;2.02;;
22005;SDS011;11167;46.988;15.470;2022-08-11T06:04:21;2.42;;;2.00;;
22005;SDS011;11167;46.988;15.470;2022-08-11T06:06:21;2.20;;;1.87;;
22005;SDS011;11167;46.988;15.470;2022-08-11T06:08:29;3.03;;;2.47;;
22005;SDS011;11167;46.988;15.470;2022-08-11T06:10:31;2.22;;;1.90;;
22005;SDS011;11167;46.988;15.470;2022-08-11T06:12:35;2.25;;;1.77;;
22005;SDS011;11167;46.988;15.470;2022-08-11T06:14:42;2.05;;;1.80;;
22005;SDS011;11167;46.988;15.470;2022-08-11T06:16:49;2.60;;;2.00;;
22005;SDS011;11167;46.988;15.470;2022-08-11T06:18:52;2.27;;;2.08;;
22005;SDS011;11167;46.988;15.470;2022-08-11T06:20:55;2.15;;;1.67;;
22005;SDS011;11167;46.988;15.470;2022-08-11T06:22:58;3.22;;;2.12;;
22005;SDS011;11167;46.988;15.470;2022-08-11T06:25:03;2.60;;;1.95;;
22005;SDS011;11167;46.988;15.470;2022-08-11T06:27:06;2.20;;;1.97;;
22005;SDS011;11167;46.988;15.470;2022-08-11T06:29:08;2.25;;;2.05;;
22005;SDS011;11167;46.988;15.470;2022-08-11T06:31:15;2.65;;;1.85;;
22005;SDS011;11167;46.988;15.470;2022-08-11T06:33:38;1.90;;;1.55;;
22005;SDS011;11167;46.988;15.470;2022-08-11T06:36:46;2.47;;;1.70;;
22005;SDS011;11167;46.988;15.470;2022-08-11T06:38:08;2.10;;;1.90;;
22005;SDS011;11167;46.988;15.470;2022-08-11T06:44:41;2.47;;;1.90;;
22005;SDS011;11167;46.988;15.470;2022-08-11T06:46:46;2.15;;;1.90;;
22005;SDS011;11167;46.988;15.470;2022-08-11T06:48:50;2.62;;;1.80;;
22005;SDS011;11167;46.988;15.470;2022-08-11T06:51:01;2.15;;;1.80;;
22005;SDS011;11167;46.988;15.470;2022-08-11T06:53:14;1.62;;;1.52;;
22005;SDS011;11167;46.988;15.470;2022-08-11T06:55:21;2.00;;;1.80;;
22005;SDS011;11167;46.988;15.470;2022-08-11T06:57:43;2.45;;;1.80;;
22005;SDS011;11167;46.988;15.470;2022-08-11T07:00:05;2.42;;;1.95;;
22005;SDS011;11167;46.988;15.470;2022-08-11T07:02:29;2.65;;;1.67;;
22005;SDS011;11167;46.988;15.470;2022-08-11T07:06:49;2.00;;;1.80;;
22005;SDS011;11167;46.988;15.470;2022-08-11T07:09:32;2.60;;;1.80;;
22005;SDS011;11167;46.988;15.470;2022-08-11T07:11:58;1.92;;;1.50;;
22005;SDS011;11167;46.988;15.470;2022-08-11T07:14:22;1.92;;;1.40;;
22005;SDS011;11167;46.988;15.470;2022-08-11T07:16:46;2.10;;;1.90;;
22005;SDS011;11167;46.988;15.470;2022-08-11T07:18:49;1.82;;;1.62;;
22005;SDS011;11167;46.988;15.470;2022-08-11T07:21:19;1.98;;;1.60;;
22005;SDS011;11167;46.988;15.470;2022-08-11T07:23:36;2.50;;;1.55;;
22005;SDS011;11167;46.988;15.470;2022-08-11T07:25:56;2.00;;;1.65;;
22005;SDS011;11167;46.988;15.470;2022-08-11T07:28:23;2.25;;;1.60;;
22005;SDS011;11167;46.988;15.470;2022-08-11T07:30:41;2.87;;;1.50;;
22005;SDS011;11167;46.988;15.470;2022-08-11T07:32:47;1.90;;;1.60;;
22005;SDS011;11167;46.988;15.470;2022-08-11T07:34:54;1.85;;;1.55;;
22005;SDS011;11167;46.988;15.470;2022-08-11T07:37:03;1.72;;;1.30;;
22005;SDS011;11167;46.988;15.470;2022-08-11T07:39:14;1.85;;;1.42;;
22005;SDS011;11167;46.988;15.470;2022-08-11T07:41:15;3.05;;;1.62;;
22005;SDS011;11167;46.988;15.470;2022-08-11T07:43:18;1.90;;;1.62;;
22005;SDS011;11167;46.988;15.470;2022-08-11T07:45:19;3.35;;;1.70;;
22005;SDS011;11167;46.988;15.470;2022-08-11T07:47:42;1.77;;;1.60;;
22005;SDS011;11167;46.988;15.470;2022-08-11T07:50:05;1.98;;;1.60;;
22005;SDS011;11167;46.988;15.470;2022-08-11T07:52:28;1.60;;;1.40;;
22005;SDS011;11167;46.988;15.470;2022-08-11T07:54:35;1.67;;;1.47;;
22005;SDS011;11167;46.988;15.470;2022-08-11T07:56:37;1.80;;;1.45;;
22005;SDS011;11167;46.988;15.470;2022-08-11T07:58:39;2.95;;;1.52;;
22005;SDS011;11167;46.988;15.470;2022-08-11T08:00:59;1.70;;;1.40;;
22005;SDS011;11167;46.988;15.470;2022-08-11T08:03:19;1.75;;;1.30;;
22005;SDS011;11167;46.988;15.470;2022-08-11T08:05:39;1.47;;;1.37;;
22005;SDS011;11167;46.988;15.470;2022-08-11T08:08:00;1.60;;;1.50;;
22005;SDS011;11167;46.988;15.470;2022-08-11T08:10:20;1.85;;;1.37;;
22005;SDS011;11167;46.988;15.470;2022-08-11T08:12:40;1.52;;;1.40;;
22005;SDS011;11167;46.988;15.470;2022-08-11T08:15:04;1.52;;;1.32;;
22005;SDS011;11167;46.988;15.470;2022-08-11T08:17:25;1.60;;;1.45;;
22005;SDS011;11167;46.988;15.470;2022-08-11T08:19:48;2.98;;;1.40;;
22005;SDS011;11167;46.988;15.470;2022-08-11T08:21:50;1.90;;;1.50;;
22005;SDS011;11167;46.988;15.470;2022-08-11T08:23:52;1.57;;;1.47;;
22005;SDS011;11167;46.988;15.470;2022-08-11T08:25:56;1.50;;;1.35;;
22005;SDS011;11167;46.988;15.470;2022-08-11T08:27:57;2.10;;;1.30;;
22005;SDS011;11167;46.988;15.470;2022-08-11T08:30:03;1.42;;;1.32;;
22005;SDS011;11167;46.988;15.470;2022-08-11T08:32:24;1.85;;;1.30;;
22005;SDS011;11167;46.988;15.470;2022-08-11T08:34:27;1.75;;;1.30;;
22005;SDS011;11167;46.988;15.470;2022-08-11T08:36:28;1.92;;;1.47;;
22005;SDS011;11167;46.988;15.470;2022-08-11T08:38:29;2.95;;;1.50;;
22005;SDS011;11167;46.988;15.470;2022-08-11T08:40:31;2.37;;;1.37;;
22005;SDS011;11167;46.988;15.470;2022-08-11T08:42:34;1.50;;;1.20;;
22005;SDS011;11167;46.988;15.470;2022-08-11T08:44:41;1.80;;;1.20;;
22005;SDS011;11167;46.988;15.470;2022-08-11T08:46:50;1.50;;;1.32;;
22005;SDS011;11167;46.988;15.470;2022-08-11T08:48:54;1.50;;;1.20;;
22005;SDS011;11167;46.988;15.470;2022-08-11T08:51:03;1.67;;;1.27;;
22005;SDS011;11167;46.988;15.470;2022-08-11T08:53:22;1.55;;;1.30;;
22005;SDS011;11167;46.988;15.470;2022-08-11T08:55:27;1.40;;;1.30;;
22005;SDS011;11167;46.988;15.470;2022-08-11T08:57:30;2.02;;;1.35;;
22005;SDS011;11167;46.988;15.470;2022-08-11T09:01:44;1.30;;;1.20;;
22005;SDS011;11167;46.988;15.470;2022-08-11T09:03:47;1.37;;;1.25;;
22005;SDS011;11167;46.988;15.470;2022-08-11T09:05:49;1.20;;;1.10;;
22005;SDS011;11167;46.988;15.470;2022-08-11T09:07:53;1.30;;;1.10;;
22005;SDS011;11167;46.988;15.470;2022-08-11T09:09:57;1.45;;;1.35;;
22005;SDS011;11167;46.988;15.470;2022-08-11T09:11:59;1.77;;;1.30;;
22005;SDS011;11167;46.988;15.470;2022-08-11T09:14:04;1.57;;;1.25;;
22005;SDS011;11167;46.988;15.470;2022-08-11T09:16:06;1.90;;;1.20;;
22005;SDS011;11167;46.988;15.470;2022-08-11T09:18:09;1.60;;;1.30;;
22005;SDS011;11167;46.988;15.470;2022-08-11T09:20:15;1.35;;;1.25;;
22005;SDS011;11167;46.988;15.470;2022-08-11T09:22:20;1.55;;;1.30;;
22005;SDS011;11167;46.988;15.470;2022-08-11T09:24:40;1.30;;;1.20;;
22005;SDS011;11167;46.988;15.470;2022-08-11T09:27:02;1.27;;;1.17;;
22005;SDS011;11167;46.988;15.470;2022-08-11T09:29:04;1.62;;;1.52;;
22005;SDS011;11167;46.988;15.470;2022-08-11T09:31:07;3.10;;;1.30;;
22005;SDS011;11167;46.988;15.470;2022-08-11T09:33:12;1.20;;;1.10;;
22005;SDS011;11167;46.988;15.470;2022-08-11T09:35:16;3.37;;;1.27;;
22005;SDS011;11167;46.988;15.470;2022-08-11T09:37:17;1.47;;;1.10;;
22005;SDS011;11167;46.988;15.470;2022-08-11T09:39:40;1.10;;;1.00;;
22005;SDS011;11167;46.988;15.470;2022-08-11T09:42:01;1.35;;;1.25;;
22005;SDS011;11167;46.988;15.470;2022-08-11T09:44:04;1.87;;;1.15;;
22005;SDS011;11167;46.988;15.470;2022-08-11T09:46:25;1.60;;;1.40;;
22005;SDS011;11167;46.988;15.470;2022-08-11T09:48:29;1.40;;;1.30;;
22005;SDS011;11167;46.988;15.470;2022-08-11T09:50:33;1.22;;;1.12;;
22005;SDS011;11167;46.988;15.470;2022-08-11T09:52:38;1.35;;;1.22;;
22005;SDS011;11167;46.988;15.470;2022-08-11T09:54:41;1.45;;;1.22;;
22005;SDS011;11167;46.988;15.470;2022-08-11T09:56:43;1.52;;;1.20;;
22005;SDS011;11167;46.988;15.470;2022-08-11T09:59:03;1.72;;;1.35;;
22005;SDS011;11167;46.988;15.470;2022-08-11T10:01:05;1.30;;;1.20;;
22005;SDS011;11167;46.988;15.470;2022-08-11T10:03:12;2.22;;;1.52;;
22005;SDS011;11167;46.988;15.470;2022-08-11T10:05:13;1.95;;;1.60;;
22005;SDS011;11167;46.988;15.470;2022-08-11T10:07:35;1.65;;;1.40;;
22005;SDS011;11167;46.988;15.470;2022-08-11T10:09:50;1.57;;;1.47;;
22005;SDS011;11167;46.988;15.470;2022-08-11T10:11:56;1.60;;;1.40;;
22005;SDS011;11167;46.988;15.470;2022-08-11T10:13:57;1.62;;;1.45;;
22005;SDS011;11167;46.988;15.470;2022-08-11T10:16:18;1.55;;;1.40;;
22005;SDS011;11167;46.988;15.470;2022-08-11T10:18:36;1.45;;;1.30;;
22005;SDS011;11167;46.988;15.470;2022-08-11T10:20:42;1.42;;;1.20;;
22005;SDS011;11167;46.988;15.470;2022-08-11T10:22:48;2.35;;;1.40;;
22005;SDS011;11167;46.988;15.470;2022-08-11T10:25:08;1.98;;;1.50;;
22005;SDS011;11167;46.988;15.470;2022-08-11T10:27:49;1.92;;;1.40;;
22005;SDS011;11167;46.988;15.470;2022-08-11T10:29:52;1.50;;;1.35;;
22005;SDS011;11167;46.988;15.470;2022-08-11T10:32:13;1.50;;;1.40;;
22005;SDS011;11167;46.988;15.470;2022-08-11T10:34:35;1.47;;;1.37;;
22005;SDS011;11167;46.988;15.470;2022-08-11T10:36:41;1.85;;;1.32;;
22005;SDS011;11167;46.988;15.470;2022-08-11T10:38:47;1.60;;;1.30;;
22005;SDS011;11167;46.988;15.470;2022-08-11T10:40:50;1.40;;;1.30;;
22005;SDS011;11167;46.988;15.470;2022-08-11T10:42:56;1.37;;;1.10;;
22005;SDS011;11167;46.988;15.470;2022-08-11T10:45:09;1.50;;;1.10;;
22005;SDS011;11167;46.988;15.470;2022-08-11T10:47:30;1.35;;;1.25;;
22005;SDS011;11167;46.988;15.470;2022-08-11T10:49:34;2.00;;;1.30;;
22005;SDS011;11167;46.988;15.470;2022-08-11T10:51:36;1.40;;;1.30;;
22005;SDS011;11167;46.988;15.470;2022-08-11T10:53:56;1.90;;;1.32;;
22005;SDS011;11167;46.988;15.470;2022-08-11T10:56:17;1.62;;;1.17;;
22005;SDS011;11167;46.988;15.470;2022-08-11T10:58:38;1.45;;;1.30;;
22005;SDS011;11167;46.988;15.470;2022-08-11T11:00:50;2.95;;;1.27;;
22005;SDS011;11167;46.988;15.470;2022-08-11T11:02:54;1.57;;;1.20;;
22005;SDS011;11167;46.988;15.470;2022-08-11T11:04:57;1.62;;;1.15;;
22005;SDS011;11167;46.988;15.470;2022-08-11T11:07:12;1.30;;;1.05;;
22005;SDS011;11167;46.988;15.470;2022-08-11T11:09:30;1.50;;;1.10;;
22005;SDS011;11167;46.988;15.470;2022-08-11T11:11:42;1.32;;;1.17;;
22005;SDS011;11167;46.988;15.470;2022-08-11T11:14:05;1.35;;;1.10;;
22005;SDS011;11167;46.988;15.470;2022-08-11T11:16:25;1.20;;;1.10;;
22005;SDS011;11167;46.988;15.470;2022-08-11T11:18:45;1.77;;;0.90;;
22005;SDS011;11167;46.988;15.470;2022-08-11T11:27:46;1.42;;;1.30;;
22005;SDS011;11167;46.988;15.470;2022-08-11T11:34:26;2.58;;;1.40;;
22005;SDS011;11167;46.988;15.470;2022-08-11T11:36:52;1.45;;;1.35;;
22005;SDS011;11167;46.988;15.470;2022-08-11T11:38:51;1.30;;;1.20;;
22005;SDS011;11167;46.988;15.470;2022-08-11T11:40:55;1.35;;;1.10;;
22005;SDS011;11167;46.988;15.470;2022-08-11T11:43:15;1.22;;;1.12;;
22005;SDS011;11167;46.988;15.470;2022-08-11T11:45:17;1.35;;;1.10;;
22005;SDS011;11167;46.988;15.470;2022-08-11T11:47:20;1.82;;;1.32;;
22005;SDS011;11167;46.988;15.470;2022-08-11T11:49:23;1.32;;;1.22;;
22005;SDS011;11167;46.988;15.470;2022-08-11T11:51:27;1.40;;;1.30;;
22005;SDS011;11167;46.988;15.470;2022-08-11T11:53:29;1.22;;;1.00;;
22005;SDS011;11167;46.988;15.470;2022-08-11T11:55:30;1.30;;;1.00;;
22005;SDS011;11167;46.988;15.470;2022-08-11T11:57:32;1.30;;;1.20;;
22005;SDS011;11167;46.988;15.470;2022-08-11T11:59:52;2.40;;;1.10;;
22005;SDS011;11167;46.988;15.470;2022-08-11T12:02:12;1.50;;;1.20;;
22005;SDS011;11167;46.988;15.470;2022-08-11T12:04:15;1.37;;;1.27;;
22005;SDS011;11167;46.988;15.470;2022-08-11T12:06:18;1.60;;;1.30;;
22005;SDS011;11167;46.988;15.470;2022-08-11T12:10:23;2.47;;;1.15;;
22005;SDS011;11167;46.988;15.470;2022-08-11T12:12:25;1.65;;;1.22;;
22005;SDS011;11167;46.988;15.470;2022-08-11T12:14:45;1.22;;;1.07;;
22005;SDS011;11167;46.988;15.470;2022-08-11T12:16:46;1.72;;;1.22;;
22005;SDS011;11167;46.988;15.470;2022-08-11T12:18:50;1.90;;;1.30;;
22005;SDS011;11167;46.988;15.470;2022-08-11T12:20:53;1.55;;;1.27;;
22005;SDS011;11167;46.988;15.470;2022-08-11T12:22:54;1.17;;;1.07;;
22005;SDS011;11167;46.988;15.470;2022-08-11T12:25:15;1.20;;;1.10;;
22005;SDS011;11167;46.988;15.470;2022-08-11T12:27:22;1.50;;;1.10;;
22005;SDS011;11167;46.988;15.470;2022-08-11T12:29:26;1.15;;;1.05;;
22005;SDS011;11167;46.988;15.470;2022-08-11T12:31:28;1.80;;;1.40;;
22005;SDS011;11167;46.988;15.470;2022-08-11T12:33:30;2.10;;;1.20;;
22005;SDS011;11167;46.988;15.470;2022-08-11T12:35:32;1.85;;;1.17;;
22005;SDS011;11167;46.988;15.470;2022-08-11T12:37:44;1.52;;;1.17;;
22005;SDS011;11167;46.988;15.470;2022-08-11T12:39:52;1.20;;;1.00;;
22005;SDS011;11167;46.988;15.470;2022-08-11T12:42:16;1.20;;;1.10;;
22005;SDS011;11167;46.988;15.470;2022-08-11T12:44:36;2.17;;;1.40;;
22005;SDS011;11167;46.988;15.470;2022-08-11T12:46:57;1.57;;;1.30;;
22005;SDS011;11167;46.988;15.470;2022-08-11T12:51:23;2.30;;;1.30;;
22005;SDS011;11167;46.988;15.470;2022-08-11T12:53:45;1.40;;;1.30;;
22005;SDS011;11167;46.988;15.470;2022-08-11T12:58:28;1.67;;;1.05;;
22005;SDS011;11167;46.988;15.470;2022-08-11T13:00:30;1.20;;;1.00;;
22005;SDS011;11167;46.988;15.470;2022-08-11T13:02:51;1.37;;;1.10;;
22005;SDS011;11167;46.988;15.470;2022-08-11T13:05:13;1.10;;;1.00;;
22005;SDS011;11167;46.988;15.470;2022-08-11T13:07:16;1.20;;;1.10;;
22005;SDS011;11167;46.988;15.470;2022-08-11T13:09:17;1.20;;;1.10;;
22005;SDS011;11167;46.988;15.470;2022-08-11T13:11:20;1.10;;;1.00;;
22005;SDS011;11167;46.988;15.470;2022-08-11T13:13:40;1.15;;;1.05;;
22005;SDS011;11167;46.988;15.470;2022-08-11T13:15:44;3.02;;;1.07;;
22005;SDS011;11167;46.988;15.470;2022-08-11T13:17:48;1.32;;;1.10;;
22005;SDS011;11167;46.988;15.470;2022-08-11T13:19:55;1.30;;;1.20;;
22005;SDS011;11167;46.988;15.470;2022-08-11T13:21:58;0.88;;;0.88;;
22005;SDS011;11167;46.988;15.470;2022-08-11T13:24:02;1.10;;;1.00;;
22005;SDS011;11167;46.988;15.470;2022-08-11T13:26:04;1.45;;;1.20;;
22005;SDS011;11167;46.988;15.470;2022-08-11T13:28:08;1.20;;;1.10;;
22005;SDS011;11167;46.988;15.470;2022-08-11T13:30:16;1.32;;;1.22;;
22005;SDS011;11167;46.988;15.470;2022-08-11T13:32:33;1.35;;;1.10;;
22005;SDS011;11167;46.988;15.470;2022-08-11T13:34:35;1.22;;;1.10;;
22005;SDS011;11167;46.988;15.470;2022-08-11T13:36:38;1.37;;;1.10;;
22005;SDS011;11167;46.988;15.470;2022-08-11T13:38:41;1.47;;;1.30;;
22005;SDS011;11167;46.988;15.470;2022-08-11T13:40:44;1.45;;;1.25;;
22005;SDS011;11167;46.988;15.470;2022-08-11T13:42:46;1.17;;;1.07;;
22005;SDS011;11167;46.988;15.470;2022-08-11T13:44:48;1.82;;;1.20;;
22005;SDS011;11167;46.988;15.470;2022-08-11T13:46:50;1.65;;;1.27;;
22005;SDS011;11167;46.988;15.470;2022-08-11T13:49:01;2.15;;;1.10;;
22005;SDS011;11167;46.988;15.470;2022-08-11T13:51:03;2.98;;;1.15;;
22005;SDS011;11167;46.988;15.470;2022-08-11T13:53:06;2.27;;;1.20;;
22005;SDS011;11167;46.988;15.470;2022-08-11T13:55:09;1.47;;;1.32;;
22005;SDS011;11167;46.988;15.470;2022-08-11T13:57:13;1.55;;;1.10;;
22005;SDS011;11167;46.988;15.470;2022-08-11T13:59:23;1.25;;;1.15;;
22005;SDS011;11167;46.988;15.470;2022-08-11T14:01:28;1.35;;;1.20;;
22005;SDS011;11167;46.988;15.470;2022-08-11T14:03:30;1.20;;;1.10;;
22005;SDS011;11167;46.988;15.470;2022-08-11T14:05:39;1.10;;;1.00;;
22005;SDS011;11167;46.988;15.470;2022-08-11T14:07:40;0.95;;;0.90;;
22005;SDS011;11167;46.988;15.470;2022-08-11T14:09:43;2.83;;;1.20;;
22005;SDS011;11167;46.988;15.470;2022-08-11T14:11:46;1.27;;;1.15;;
22005;SDS011;11167;46.988;15.470;2022-08-11T14:14:06;1.45;;;1.00;;
22005;SDS011;11167;46.988;15.470;2022-08-11T14:16:19;1.62;;;1.07;;
22005;SDS011;11167;46.988;15.470;2022-08-11T14:18:25;1.30;;;1.20;;
22005;SDS011;11167;46.988;15.470;2022-08-11T14:20:28;1.42;;;1.32;;
22005;SDS011;11167;46.988;15.470;2022-08-11T14:22:33;1.12;;;1.00;;
22005;SDS011;11167;46.988;15.470;2022-08-11T14:24:41;1.35;;;1.10;;
22005;SDS011;11167;46.988;15.470;2022-08-11T14:26:44;1.10;;;1.00;;
22005;SDS011;11167;46.988;15.470;2022-08-11T14:28:48;1.20;;;1.10;;
22005;SDS011;11167;46.988;15.470;2022-08-11T14:30:54;1.15;;;1.00;;
22005;SDS011;11167;46.988;15.470;2022-08-11T14:32:55;1.17;;;1.07;;
22005;SDS011;11167;46.988;15.470;2022-08-11T14:34:57;2.30;;;1.00;;
22005;SDS011;11167;46.988;15.470;2022-08-11T14:37:00;1.02;;;0.98;;
22005;SDS011;11167;46.988;15.470;2022-08-11T14:39:06;1.30;;;1.00;;
22005;SDS011;11167;46.988;15.470;2022-08-11T14:43:37;1.35;;;0.90;;
22005;SDS011;11167;46.988;15.470;2022-08-11T14:45:58;0.90;;;0.90;;
22005;SDS011;11167;46.988;15.470;2022-08-11T14:48:18;1.37;;;1.10;;
22005;SDS011;11167;46.988;15.470;2022-08-11T14:50:21;0.98;;;0.90;;
22005;SDS011;11167;46.988;15.470;2022-08-11T14:52:24;1.77;;;1.02;;
22005;SDS011;11167;46.988;15.470;2022-08-11T14:54:28;1.45;;;1.20;;
22005;SDS011;11167;46.988;15.470;2022-08-11T14:56:48;1.20;;;1.10;;
22005;SDS011;11167;46.988;15.470;2022-08-11T14:58:50;1.20;;;1.10;;
22005;SDS011;11167;46.988;15.470;2022-08-11T15:00:53;0.98;;;0.90;;
22005;SDS011;11167;46.988;15.470;2022-08-11T15:02:56;0.80;;;0.80;;
22005;SDS011;11167;46.988;15.470;2022-08-11T15:05:11;0.98;;;0.90;;
22005;SDS011;11167;46.988;15.470;2022-08-11T15:07:13;1.47;;;0.93;;
22005;SDS011;11167;46.988;15.470;2022-08-11T15:09:16;0.95;;;0.90;;
22005;SDS011;11167;46.988;15.470;2022-08-11T15:11:19;1.17;;;1.07;;
22005;SDS011;11167;46.988;15.470;2022-08-11T15:13:43;1.07;;;0.98;;
22005;SDS011;11167;46.988;15.470;2022-08-11T15:15:44;1.45;;;1.00;;
22005;SDS011;11167;46.988;15.470;2022-08-11T15:18:05;1.10;;;1.00;;
22005;SDS011;11167;46.988;15.470;2022-08-11T15:20:09;1.60;;;1.10;;
22005;SDS011;11167;46.988;15.470;2022-08-11T15:22:32;1.32;;;1.00;;
22005;SDS011;11167;46.988;15.470;2022-08-11T15:24:53;1.37;;;0.90;;
22005;SDS011;11167;46.988;15.470;2022-08-11T15:26:55;0.90;;;0.90;;
22005;SDS011;11167;46.988;15.470;2022-08-11T15:29:19;2.17;;;1.00;;
22005;SDS011;11167;46.988;15.470;2022-08-11T15:31:39;0.95;;;0.90;;
22005;SDS011;11167;46.988;15.470;2022-08-11T15:34:00;1.00;;;0.98;;
22005;SDS011;11167;46.988;15.470;2022-08-11T15:36:21;1.00;;;0.90;;
22005;SDS011;11167;46.988;15.470;2022-08-11T15:38:43;1.12;;;1.02;;
22005;SDS011;11167;46.988;15.470;2022-08-11T15:40:49;1.10;;;1.02;;
22005;SDS011;11167;46.988;15.470;2022-08-11T15:43:13;1.02;;;0.90;;
22005;SDS011;11167;46.988;15.470;2022-08-11T15:45:38;0.95;;;0.90;;
22005;SDS011;11167;46.988;15.470;2022-08-11T15:47:51;1.07;;;0.95;;
22005;SDS011;11167;46.988;15.470;2022-08-11T15:49:59;0.90;;;0.90;;
22005;SDS011;11167;46.988;15.470;2022-08-11T15:52:05;1.07;;;0.98;;
22005;SDS011;11167;46.988;15.470;2022-08-11T15:54:17;1.17;;;1.10;;
22005;SDS011;11167;46.988;15.470;2022-08-11T15:56:21;0.82;;;0.82;;
22005;SDS011;11167;46.988;15.470;2022-08-11T15:58:30;1.10;;;1.00;;
22005;SDS011;11167;46.988;15.470;2022-08-11T16:00:51;1.07;;;1.00;;
22005;SDS011;11167;46.988;15.470;2022-08-11T16:03:12;0.98;;;0.98;;
22005;SDS011;11167;46.988;15.470;2022-08-11T16:05:33;0.80;;;0.78;;